sensor_id;sensor_type;location;lat;lon;timestamp;pressure;altitude;pressure_sealevel;temperature;humidity
55466;BME280;41329;41.594;23.810;2024-02-23T00:02:24;95300.03;;;8.40;60.54
55466;BME280;41329;41.594;23.810;2024-02-23T00:04:50;95272.06;;;8.22;60.59
55466;BME280;41329;41.594;23.810;2024-02-23T00:07:15;95287.41;;;8.39;60.72
55466;BME280;41329;41.594;23.810;2024-02-23T00:09:41;95302.88;;;8.43;60.90
55466;BME280;41329;41.594;23.810;2024-02-23T00:12:06;95289.00;;;8.40;61.08
55466;BME280;41329;41.594;23.810;2024-02-23T00:14:33;95267.97;;;8.32;61.12
55466;BME280;41329;41.594;23.810;2024-02-23T00:17:02;95285.81;;;8.38;61.10
55466;BME280;41329;41.594;23.810;2024-02-23T00:19:27;95281.00;;;8.35;60.60
55466;BME280;41329;41.594;23.810;2024-02-23T00:21:52;95282.09;;;8.30;60.88
55466;BME280;41329;41.594;23.810;2024-02-23T00:24:18;95269.47;;;8.29;61.24
55466;BME280;41329;41.594;23.810;2024-02-23T00:26:46;95252.28;;;8.20;61.38
55466;BME280;41329;41.594;23.810;2024-02-23T00:29:11;95256.69;;;8.21;61.60
55466;BME280;41329;41.594;23.810;2024-02-23T00:31:40;95266.06;;;8.36;61.47
55466;BME280;41329;41.594;23.810;2024-02-23T00:34:10;95254.91;;;8.29;61.49
55466;BME280;41329;41.594;23.810;2024-02-23T00:36:42;95247.41;;;8.29;61.79
55466;BME280;41329;41.594;23.810;2024-02-23T00:39:09;95249.28;;;8.25;62.02
55466;BME280;41329;41.594;23.810;2024-02-23T00:41:34;95254.03;;;8.25;61.43
55466;BME280;41329;41.594;23.810;2024-02-23T00:44:00;95247.13;;;8.19;61.25
55466;BME280;41329;41.594;23.810;2024-02-23T00:46:26;95246.00;;;8.20;61.02
55466;BME280;41329;41.594;23.810;2024-02-23T00:48:51;95237.97;;;8.15;60.85
55466;BME280;41329;41.594;23.810;2024-02-23T00:51:17;95245.13;;;8.16;61.52
55466;BME280;41329;41.594;23.810;2024-02-23T00:53:42;95233.50;;;8.07;61.06
55466;BME280;41329;41.594;23.810;2024-02-23T00:56:07;95255.41;;;8.19;61.39
55466;BME280;41329;41.594;23.810;2024-02-23T00:58:33;95241.91;;;8.14;61.31
55466;BME280;41329;41.594;23.810;2024-02-23T01:00:59;95237.66;;;8.01;61.56
55466;BME280;41329;41.594;23.810;2024-02-23T01:03:25;95257.41;;;8.03;61.14
55466;BME280;41329;41.594;23.810;2024-02-23T01:05:50;95254.13;;;7.97;60.78
55466;BME280;41329;41.594;23.810;2024-02-23T01:08:15;95250.75;;;7.88;60.60
55466;BME280;41329;41.594;23.810;2024-02-23T01:10:41;95232.97;;;7.70;61.21
55466;BME280;41329;41.594;23.810;2024-02-23T01:13:06;95247.00;;;7.81;61.88
55466;BME280;41329;41.594;23.810;2024-02-23T01:15:32;95237.78;;;7.73;62.15
55466;BME280;41329;41.594;23.810;2024-02-23T01:17:57;95242.03;;;7.71;62.73
55466;BME280;41329;41.594;23.810;2024-02-23T01:20:22;95238.84;;;7.69;63.16
55466;BME280;41329;41.594;23.810;2024-02-23T01:22:48;95240.09;;;7.71;62.98
55466;BME280;41329;41.594;23.810;2024-02-23T01:25:13;95239.38;;;7.74;62.76
55466;BME280;41329;41.594;23.810;2024-02-23T01:27:41;95227.47;;;7.70;62.33
55466;BME280;41329;41.594;23.810;2024-02-23T01:30:07;95231.03;;;7.71;62.36
55466;BME280;41329;41.594;23.810;2024-02-23T01:32:32;95221.88;;;7.67;62.57
55466;BME280;41329;41.594;23.810;2024-02-23T01:34:58;95212.03;;;7.66;62.53
55466;BME280;41329;41.594;23.810;2024-02-23T01:37:23;95209.09;;;7.59;62.67
55466;BME280;41329;41.594;23.810;2024-02-23T01:39:48;95132.47;;;7.14;63.07
55466;BME280;41329;41.594;23.810;2024-02-23T01:42:14;95194.16;;;7.44;63.31
55466;BME280;41329;41.594;23.810;2024-02-23T01:44:39;95202.78;;;7.43;63.55
55466;BME280;41329;41.594;23.810;2024-02-23T01:47:05;95204.56;;;7.35;63.90
55466;BME280;41329;41.594;23.810;2024-02-23T01:49:31;95189.09;;;7.15;63.54
55466;BME280;41329;41.594;23.810;2024-02-23T01:51:58;95192.38;;;7.21;63.53
55466;BME280;41329;41.594;23.810;2024-02-23T01:54:25;95206.94;;;7.21;63.75
55466;BME280;41329;41.594;23.810;2024-02-23T01:56:51;95208.06;;;7.20;64.09
55466;BME280;41329;41.594;23.810;2024-02-23T01:59:16;95188.53;;;7.10;63.59
55466;BME280;41329;41.594;23.810;2024-02-23T02:01:45;95202.16;;;7.18;64.34
55466;BME280;41329;41.594;23.810;2024-02-23T02:04:11;95206.22;;;7.24;65.05
55466;BME280;41329;41.594;23.810;2024-02-23T02:06:36;95196.91;;;7.29;65.35
55466;BME280;41329;41.594;23.810;2024-02-23T02:09:02;95193.91;;;7.34;65.27
55466;BME280;41329;41.594;23.810;2024-02-23T02:11:28;95201.53;;;7.40;65.26
55466;BME280;41329;41.594;23.810;2024-02-23T02:13:53;95207.16;;;7.44;65.27
55466;BME280;41329;41.594;23.810;2024-02-23T02:16:18;95195.50;;;7.35;64.39
55466;BME280;41329;41.594;23.810;2024-02-23T02:18:44;95193.63;;;7.39;64.24
55466;BME280;41329;41.594;23.810;2024-02-23T02:21:12;95195.25;;;7.40;64.60
55466;BME280;41329;41.594;23.810;2024-02-23T02:23:38;95172.84;;;7.26;64.67
55466;BME280;41329;41.594;23.810;2024-02-23T02:26:04;95184.84;;;7.33;64.75
55466;BME280;41329;41.594;23.810;2024-02-23T02:28:29;95200.03;;;7.43;63.98
55466;BME280;41329;41.594;23.810;2024-02-23T02:30:55;95191.75;;;7.43;64.00
55466;BME280;41329;41.594;23.810;2024-02-23T02:33:21;95183.59;;;7.31;64.14
55466;BME280;41329;41.594;23.810;2024-02-23T02:35:47;95198.78;;;7.40;64.69
55466;BME280;41329;41.594;23.810;2024-02-23T02:38:13;95195.25;;;7.40;64.72
55466;BME280;41329;41.594;23.810;2024-02-23T02:40:39;95188.66;;;7.44;64.53
55466;BME280;41329;41.594;23.810;2024-02-23T02:43:04;95159.81;;;7.23;64.81
55466;BME280;41329;41.594;23.810;2024-02-23T02:45:31;95188.03;;;7.35;64.60
55466;BME280;41329;41.594;23.810;2024-02-23T02:47:56;95182.63;;;7.39;64.43
55466;BME280;41329;41.594;23.810;2024-02-23T02:50:22;95158.56;;;7.20;64.41
55466;BME280;41329;41.594;23.810;2024-02-23T02:52:47;95183.34;;;7.36;64.55
55466;BME280;41329;41.594;23.810;2024-02-23T02:55:13;95190.19;;;7.42;64.89
55466;BME280;41329;41.594;23.810;2024-02-23T02:57:38;95172.16;;;7.29;64.88
55466;BME280;41329;41.594;23.810;2024-02-23T03:00:04;95170.09;;;7.26;64.83
55466;BME280;41329;41.594;23.810;2024-02-23T03:02:33;95174.44;;;7.27;64.87
55466;BME280;41329;41.594;23.810;2024-02-23T03:04:59;95178.47;;;7.29;64.71
55466;BME280;41329;41.594;23.810;2024-02-23T03:07:24;95198.69;;;7.37;64.70
55466;BME280;41329;41.594;23.810;2024-02-23T03:09:50;95196.13;;;7.44;65.26
55466;BME280;41329;41.594;23.810;2024-02-23T03:12:16;95200.03;;;7.43;64.99
55466;BME280;41329;41.594;23.810;2024-02-23T03:14:42;95188.94;;;7.39;65.21
55466;BME280;41329;41.594;23.810;2024-02-23T03:17:08;95177.13;;;7.39;65.29
55466;BME280;41329;41.594;23.810;2024-02-23T03:19:37;95169.59;;;7.36;65.54
55466;BME280;41329;41.594;23.810;2024-02-23T03:22:03;95165.59;;;7.33;65.71
55466;BME280;41329;41.594;23.810;2024-02-23T03:24:29;95161.22;;;7.32;65.99
55466;BME280;41329;41.594;23.810;2024-02-23T03:26:54;95163.53;;;7.30;65.91
55466;BME280;41329;41.594;23.810;2024-02-23T03:29:21;95169.59;;;7.36;65.67
55466;BME280;41329;41.594;23.810;2024-02-23T03:31:49;95158.47;;;7.32;65.69
55466;BME280;41329;41.594;23.810;2024-02-23T03:34:15;95169.06;;;7.30;65.65
55466;BME280;41329;41.594;23.810;2024-02-23T03:36:40;95180.22;;;7.22;64.81
55466;BME280;41329;41.594;23.810;2024-02-23T03:39:05;95180.94;;;7.19;64.68
55466;BME280;41329;41.594;23.810;2024-02-23T03:41:31;95162.47;;;7.04;64.79
55466;BME280;41329;41.594;23.810;2024-02-23T03:43:56;95166.25;;;6.99;65.13
55466;BME280;41329;41.594;23.810;2024-02-23T03:46:22;95181.91;;;7.11;65.21
55466;BME280;41329;41.594;23.810;2024-02-23T03:48:47;95180.00;;;6.99;64.83
55466;BME280;41329;41.594;23.810;2024-02-23T03:51:12;95179.56;;;6.97;64.86
55466;BME280;41329;41.594;23.810;2024-02-23T03:53:38;95185.34;;;6.92;65.00
55466;BME280;41329;41.594;23.810;2024-02-23T03:56:03;95167.09;;;6.72;64.86
55466;BME280;41329;41.594;23.810;2024-02-23T03:58:29;95191.72;;;6.81;64.89
55466;BME280;41329;41.594;23.810;2024-02-23T04:00:54;95203.06;;;6.79;65.09
55466;BME280;41329;41.594;23.810;2024-02-23T04:03:20;95203.75;;;6.76;65.30
55466;BME280;41329;41.594;23.810;2024-02-23T04:05:45;95168.56;;;6.54;65.05
55466;BME280;41329;41.594;23.810;2024-02-23T04:08:11;95189.00;;;6.69;65.50
55466;BME280;41329;41.594;23.810;2024-02-23T04:10:36;95190.13;;;6.68;65.68
55466;BME280;41329;41.594;23.810;2024-02-23T04:13:02;95187.09;;;6.57;66.19
55466;BME280;41329;41.594;23.810;2024-02-23T04:15:27;95185.72;;;6.63;66.41
55466;BME280;41329;41.594;23.810;2024-02-23T04:17:53;95191.97;;;6.63;66.44
55466;BME280;41329;41.594;23.810;2024-02-23T04:20:18;95191.63;;;6.65;66.51
55466;BME280;41329;41.594;23.810;2024-02-23T04:22:44;95133.28;;;6.28;66.43
55466;BME280;41329;41.594;23.810;2024-02-23T04:25:10;95191.34;;;6.54;66.70
55466;BME280;41329;41.594;23.810;2024-02-23T04:27:35;95200.75;;;6.53;66.39
55466;BME280;41329;41.594;23.810;2024-02-23T04:30:01;95188.28;;;6.44;65.77
55466;BME280;41329;41.594;23.810;2024-02-23T04:32:26;95188.06;;;6.49;65.73
55466;BME280;41329;41.594;23.810;2024-02-23T04:34:52;95193.09;;;6.47;65.93
55466;BME280;41329;41.594;23.810;2024-02-23T04:37:17;95189.34;;;6.39;66.24
55466;BME280;41329;41.594;23.810;2024-02-23T04:39:46;95189.78;;;6.41;66.47
55466;BME280;41329;41.594;23.810;2024-02-23T04:42:11;95168.41;;;6.35;66.68
55466;BME280;41329;41.594;23.810;2024-02-23T04:44:37;95177.13;;;6.37;66.81
55466;BME280;41329;41.594;23.810;2024-02-23T04:47:02;95182.94;;;6.35;67.54
55466;BME280;41329;41.594;23.810;2024-02-23T04:49:28;95177.63;;;6.42;67.91
55466;BME280;41329;41.594;23.810;2024-02-23T04:51:54;95176.50;;;6.43;68.26
55466;BME280;41329;41.594;23.810;2024-02-23T04:54:19;95181.41;;;6.50;68.41
55466;BME280;41329;41.594;23.810;2024-02-23T04:56:45;95182.25;;;6.38;68.36
55466;BME280;41329;41.594;23.810;2024-02-23T04:59:10;95184.03;;;6.46;68.13
55466;BME280;41329;41.594;23.810;2024-02-23T05:01:36;95165.31;;;6.36;67.27
55466;BME280;41329;41.594;23.810;2024-02-23T05:04:02;95176.66;;;6.35;67.11
55466;BME280;41329;41.594;23.810;2024-02-23T05:06:29;95193.97;;;6.23;66.84
55466;BME280;41329;41.594;23.810;2024-02-23T05:08:54;95184.44;;;5.93;66.61
55466;BME280;41329;41.594;23.810;2024-02-23T05:11:19;95192.53;;;5.90;66.62
55466;BME280;41329;41.594;23.810;2024-02-23T05:13:45;95194.03;;;5.75;66.96
55466;BME280;41329;41.594;23.810;2024-02-23T05:16:10;95198.59;;;5.35;68.12
55466;BME280;41329;41.594;23.810;2024-02-23T05:18:38;95199.97;;;5.41;67.93
55466;BME280;41329;41.594;23.810;2024-02-23T05:21:04;95201.78;;;5.49;67.71
55466;BME280;41329;41.594;23.810;2024-02-23T05:23:30;95201.03;;;5.49;67.80
55466;BME280;41329;41.594;23.810;2024-02-23T05:25:55;95210.16;;;5.53;67.86
55466;BME280;41329;41.594;23.810;2024-02-23T05:28:21;95214.59;;;5.45;67.77
55466;BME280;41329;41.594;23.810;2024-02-23T05:30:46;95205.00;;;5.27;68.08
55466;BME280;41329;41.594;23.810;2024-02-23T05:33:11;95217.34;;;5.33;68.39
55466;BME280;41329;41.594;23.810;2024-02-23T05:35:37;95193.78;;;5.20;68.31
55466;BME280;41329;41.594;23.810;2024-02-23T05:38:02;95203.28;;;5.35;68.43
55466;BME280;41329;41.594;23.810;2024-02-23T05:40:27;95210.72;;;5.34;68.61
55466;BME280;41329;41.594;23.810;2024-02-23T05:42:53;95213.31;;;5.31;69.16
55466;BME280;41329;41.594;23.810;2024-02-23T05:45:19;95219.41;;;5.36;68.88
55466;BME280;41329;41.594;23.810;2024-02-23T05:47:45;95226.97;;;5.39;69.04
55466;BME280;41329;41.594;23.810;2024-02-23T05:50:10;95226.38;;;5.46;68.90
55466;BME280;41329;41.594;23.810;2024-02-23T05:52:36;95228.78;;;5.47;68.86
55466;BME280;41329;41.594;23.810;2024-02-23T05:55:02;95210.59;;;5.43;68.94
55466;BME280;41329;41.594;23.810;2024-02-23T05:57:29;95215.53;;;5.49;68.99
55466;BME280;41329;41.594;23.810;2024-02-23T05:59:55;95231.56;;;5.59;69.59
55466;BME280;41329;41.594;23.810;2024-02-23T06:02:21;95239.56;;;5.64;69.62
55466;BME280;41329;41.594;23.810;2024-02-23T06:04:47;95242.06;;;5.69;69.83
55466;BME280;41329;41.594;23.810;2024-02-23T06:07:13;95214.03;;;5.64;69.75
55466;BME280;41329;41.594;23.810;2024-02-23T06:09:41;95223.41;;;5.75;70.04
55466;BME280;41329;41.594;23.810;2024-02-23T06:12:06;95242.09;;;5.93;70.13
55466;BME280;41329;41.594;23.810;2024-02-23T06:14:32;95215.09;;;5.83;70.35
55466;BME280;41329;41.594;23.810;2024-02-23T06:16:57;95215.66;;;5.89;70.54
55466;BME280;41329;41.594;23.810;2024-02-23T06:19:23;95245.50;;;6.14;70.93
55466;BME280;41329;41.594;23.810;2024-02-23T06:21:49;95245.69;;;6.21;70.54
55466;BME280;41329;41.594;23.810;2024-02-23T06:24:15;95248.91;;;6.35;70.41
55466;BME280;41329;41.594;23.810;2024-02-23T06:26:40;95261.47;;;6.36;70.34
55466;BME280;41329;41.594;23.810;2024-02-23T06:29:06;95245.91;;;6.40;69.70
55466;BME280;41329;41.594;23.810;2024-02-23T06:31:33;95246.13;;;6.47;69.73
55466;BME280;41329;41.594;23.810;2024-02-23T06:33:59;95258.34;;;6.62;70.07
55466;BME280;41329;41.594;23.810;2024-02-23T06:36:25;95259.06;;;6.75;70.50
55466;BME280;41329;41.594;23.810;2024-02-23T06:38:50;95233.78;;;6.69;70.54
55466;BME280;41329;41.594;23.810;2024-02-23T06:41:16;95257.44;;;6.86;70.37
55466;BME280;41329;41.594;23.810;2024-02-23T06:43:42;95253.19;;;6.88;70.36
55466;BME280;41329;41.594;23.810;2024-02-23T06:46:08;95227.28;;;6.89;70.27
55466;BME280;41329;41.594;23.810;2024-02-23T06:48:34;95235.28;;;6.94;70.83
55466;BME280;41329;41.594;23.810;2024-02-23T06:50:59;95251.94;;;7.13;70.89
55466;BME280;41329;41.594;23.810;2024-02-23T06:53:25;95259.47;;;7.16;70.89
55466;BME280;41329;41.594;23.810;2024-02-23T06:55:50;95251.97;;;7.29;70.89
55466;BME280;41329;41.594;23.810;2024-02-23T06:58:16;95243.69;;;7.29;70.81
55466;BME280;41329;41.594;23.810;2024-02-23T07:00:42;95261.19;;;7.36;70.89
55466;BME280;41329;41.594;23.810;2024-02-23T07:03:07;95256.66;;;7.28;70.73
55466;BME280;41329;41.594;23.810;2024-02-23T07:05:33;95248.38;;;7.13;71.61
55466;BME280;41329;41.594;23.810;2024-02-23T07:08:01;95252.56;;;7.22;71.25
55466;BME280;41329;41.594;23.810;2024-02-23T07:10:26;95247.59;;;7.12;71.83
55466;BME280;41329;41.594;23.810;2024-02-23T07:12:52;95245.41;;;7.06;71.76
55466;BME280;41329;41.594;23.810;2024-02-23T07:15:21;95246.41;;;6.98;72.81
55466;BME280;41329;41.594;23.810;2024-02-23T07:17:47;95268.63;;;7.20;72.57
55466;BME280;41329;41.594;23.810;2024-02-23T07:20:13;95261.78;;;7.14;72.65
55466;BME280;41329;41.594;23.810;2024-02-23T07:22:38;95266.13;;;6.88;72.98
55466;BME280;41329;41.594;23.810;2024-02-23T07:25:05;95274.81;;;7.02;72.67
55466;BME280;41329;41.594;23.810;2024-02-23T07:27:31;95233.03;;;7.12;73.01
55466;BME280;41329;41.594;23.810;2024-02-23T07:29:57;95259.44;;;7.44;73.25
55466;BME280;41329;41.594;23.810;2024-02-23T07:32:22;95251.91;;;7.72;73.86
55466;BME280;41329;41.594;23.810;2024-02-23T07:34:47;95244.44;;;7.88;73.76
55466;BME280;41329;41.594;23.810;2024-02-23T07:37:13;95256.16;;;8.00;71.54
55466;BME280;41329;41.594;23.810;2024-02-23T07:39:39;95256.31;;;8.07;71.62
55466;BME280;41329;41.594;23.810;2024-02-23T07:42:04;95253.94;;;8.21;71.03
55466;BME280;41329;41.594;23.810;2024-02-23T07:44:31;95253.22;;;8.24;70.58
55466;BME280;41329;41.594;23.810;2024-02-23T07:46:56;95249.69;;;8.43;70.17
55466;BME280;41329;41.594;23.810;2024-02-23T07:49:24;95252.75;;;8.57;69.87
55466;BME280;41329;41.594;23.810;2024-02-23T07:51:49;95254.44;;;8.61;69.44
55466;BME280;41329;41.594;23.810;2024-02-23T07:54:15;95255.38;;;8.69;69.42
55466;BME280;41329;41.594;23.810;2024-02-23T07:56:40;95252.75;;;8.57;69.10
55466;BME280;41329;41.594;23.810;2024-02-23T07:59:05;95256.16;;;8.50;68.74
55466;BME280;41329;41.594;23.810;2024-02-23T08:01:31;95239.16;;;8.29;69.39
55466;BME280;41329;41.594;23.810;2024-02-23T08:03:57;95255.13;;;8.39;70.27
55466;BME280;41329;41.594;23.810;2024-02-23T08:06:22;95244.63;;;8.45;70.05
55466;BME280;41329;41.594;23.810;2024-02-23T08:08:48;95258.72;;;8.59;70.06
55466;BME280;41329;41.594;23.810;2024-02-23T08:11:13;95240.78;;;8.49;69.66
55466;BME280;41329;41.594;23.810;2024-02-23T08:13:39;95242.19;;;8.59;69.57
55466;BME280;41329;41.594;23.810;2024-02-23T08:16:06;95254.97;;;8.86;69.61
55466;BME280;41329;41.594;23.810;2024-02-23T08:18:31;95236.75;;;8.81;69.04
55466;BME280;41329;41.594;23.810;2024-02-23T08:20:58;95263.25;;;9.05;68.86
55466;BME280;41329;41.594;23.810;2024-02-23T08:23:23;95241.84;;;8.98;68.73
55466;BME280;41329;41.594;23.810;2024-02-23T08:25:49;95258.97;;;9.07;67.72
55466;BME280;41329;41.594;23.810;2024-02-23T08:28:15;95257.44;;;9.10;68.28
55466;BME280;41329;41.594;23.810;2024-02-23T08:30:41;95256.28;;;9.11;68.49
55466;BME280;41329;41.594;23.810;2024-02-23T08:33:06;95255.81;;;9.28;68.82
55466;BME280;41329;41.594;23.810;2024-02-23T08:35:35;95233.50;;;9.36;68.61
55466;BME280;41329;41.594;23.810;2024-02-23T08:38:00;95247.72;;;9.57;67.91
55466;BME280;41329;41.594;23.810;2024-02-23T08:40:26;95241.94;;;9.66;67.39
55466;BME280;41329;41.594;23.810;2024-02-23T08:42:51;95256.88;;;9.84;67.38
55466;BME280;41329;41.594;23.810;2024-02-23T08:45:17;95249.84;;;9.90;67.51
55466;BME280;41329;41.594;23.810;2024-02-23T08:47:43;95246.53;;;10.03;67.28
55466;BME280;41329;41.594;23.810;2024-02-23T08:50:08;95239.47;;;9.83;65.95
55466;BME280;41329;41.594;23.810;2024-02-23T08:52:34;95252.75;;;9.97;66.02
55466;BME280;41329;41.594;23.810;2024-02-23T08:54:59;95243.50;;;10.08;66.49
55466;BME280;41329;41.594;23.810;2024-02-23T08:57:28;95232.66;;;10.22;67.46
55466;BME280;41329;41.594;23.810;2024-02-23T08:59:54;95218.81;;;10.22;65.79
55466;BME280;41329;41.594;23.810;2024-02-23T09:02:22;95248.09;;;10.49;65.15
55466;BME280;41329;41.594;23.810;2024-02-23T09:04:48;95244.72;;;10.63;65.25
55466;BME280;41329;41.594;23.810;2024-02-23T09:07:13;95233.22;;;10.61;64.50
55466;BME280;41329;41.594;23.810;2024-02-23T09:09:39;95231.88;;;10.77;64.46
55466;BME280;41329;41.594;23.810;2024-02-23T09:12:05;95237.16;;;10.89;64.34
55466;BME280;41329;41.594;23.810;2024-02-23T09:14:32;95235.38;;;11.04;64.13
55466;BME280;41329;41.594;23.810;2024-02-23T09:17:00;95239.34;;;11.06;63.56
55466;BME280;41329;41.594;23.810;2024-02-23T09:19:25;95203.19;;;10.92;64.00
55466;BME280;41329;41.594;23.810;2024-02-23T09:21:51;95231.13;;;11.10;63.49
55466;BME280;41329;41.594;23.810;2024-02-23T09:24:16;95218.31;;;10.98;63.62
55466;BME280;41329;41.594;23.810;2024-02-23T09:26:41;95208.78;;;10.96;63.70
55466;BME280;41329;41.594;23.810;2024-02-23T09:29:07;95224.41;;;11.11;63.90
55466;BME280;41329;41.594;23.810;2024-02-23T09:31:32;95211.47;;;11.22;65.53
55466;BME280;41329;41.594;23.810;2024-02-23T09:33:58;95206.22;;;11.50;65.20
55466;BME280;41329;41.594;23.810;2024-02-23T09:36:24;95199.06;;;11.82;66.13
55466;BME280;41329;41.594;23.810;2024-02-23T09:38:50;95203.19;;;12.02;65.04
55466;BME280;41329;41.594;23.810;2024-02-23T09:41:20;95191.00;;;12.17;62.59
55466;BME280;41329;41.594;23.810;2024-02-23T09:43:47;95189.91;;;12.28;62.57
55466;BME280;41329;41.594;23.810;2024-02-23T09:46:13;95194.06;;;12.56;62.70
55466;BME280;41329;41.594;23.810;2024-02-23T09:48:41;95198.44;;;12.60;61.23
55466;BME280;41329;41.594;23.810;2024-02-23T09:51:07;95188.63;;;12.80;61.33
55466;BME280;41329;41.594;23.810;2024-02-23T09:53:37;95175.25;;;13.00;62.00
55466;BME280;41329;41.594;23.810;2024-02-23T09:56:03;95190.84;;;13.25;60.14
55466;BME280;41329;41.594;23.810;2024-02-23T09:58:31;95167.78;;;13.14;58.58
55466;BME280;41329;41.594;23.810;2024-02-23T10:00:58;95187.75;;;13.44;59.02
55466;BME280;41329;41.594;23.810;2024-02-23T10:03:25;95166.72;;;13.57;60.01
55466;BME280;41329;41.594;23.810;2024-02-23T10:05:53;95180.22;;;13.66;56.97
55466;BME280;41329;41.594;23.810;2024-02-23T10:08:19;95171.91;;;13.76;57.22
55466;BME280;41329;41.594;23.810;2024-02-23T10:10:47;95170.72;;;13.88;57.96
55466;BME280;41329;41.594;23.810;2024-02-23T10:13:18;95162.75;;;14.14;57.48
55466;BME280;41329;41.594;23.810;2024-02-23T10:15:46;95134.94;;;14.04;57.97
55466;BME280;41329;41.594;23.810;2024-02-23T10:18:12;95149.66;;;14.36;57.43
55466;BME280;41329;41.594;23.810;2024-02-23T10:20:37;95152.78;;;14.66;57.34
55466;BME280;41329;41.594;23.810;2024-02-23T10:23:04;95155.47;;;14.97;57.43
55466;BME280;41329;41.594;23.810;2024-02-23T10:25:29;95149.00;;;15.18;55.11
55466;BME280;41329;41.594;23.810;2024-02-23T10:27:55;95137.84;;;15.21;55.39
55466;BME280;41329;41.594;23.810;2024-02-23T10:30:20;95120.28;;;15.28;54.36
55466;BME280;41329;41.594;23.810;2024-02-23T10:32:46;95129.03;;;15.37;53.23
55466;BME280;41329;41.594;23.810;2024-02-23T10:35:15;95121.34;;;15.58;54.13
55466;BME280;41329;41.594;23.810;2024-02-23T10:37:48;95123.06;;;15.93;53.58
55466;BME280;41329;41.594;23.810;2024-02-23T10:40:16;95127.19;;;16.22;53.31
55466;BME280;41329;41.594;23.810;2024-02-23T10:42:44;95099.88;;;16.40;51.52
55466;BME280;41329;41.594;23.810;2024-02-23T10:45:14;95107.94;;;16.75;50.18
55466;BME280;41329;41.594;23.810;2024-02-23T10:47:41;95114.81;;;16.67;47.10
55466;BME280;41329;41.594;23.810;2024-02-23T10:50:07;95118.59;;;16.83;49.23
55466;BME280;41329;41.594;23.810;2024-02-23T10:52:33;95106.47;;;16.63;46.47
55466;BME280;41329;41.594;23.810;2024-02-23T10:55:00;95104.28;;;16.81;48.53
55466;BME280;41329;41.594;23.810;2024-02-23T10:57:30;95110.31;;;17.10;48.87
55466;BME280;41329;41.594;23.810;2024-02-23T10:59:57;95104.97;;;17.22;45.49
55466;BME280;41329;41.594;23.810;2024-02-23T11:02:24;95091.13;;;16.78;45.62
55466;BME280;41329;41.594;23.810;2024-02-23T11:04:54;95100.91;;;16.60;46.26
55466;BME280;41329;41.594;23.810;2024-02-23T11:07:22;95089.88;;;16.83;47.63
55466;BME280;41329;41.594;23.810;2024-02-23T11:09:59;95092.28;;;17.14;47.09
55466;BME280;41329;41.594;23.810;2024-02-23T11:12:28;95094.59;;;17.19;44.39
55466;BME280;41329;41.594;23.810;2024-02-23T11:14:58;95100.94;;;17.23;42.61
55466;BME280;41329;41.594;23.810;2024-02-23T11:17:26;95095.28;;;17.27;43.49
55466;BME280;41329;41.594;23.810;2024-02-23T11:19:51;95087.53;;;17.41;44.15
55466;BME280;41329;41.594;23.810;2024-02-23T11:22:25;95070.75;;;17.41;43.95
55466;BME280;41329;41.594;23.810;2024-02-23T11:25:00;95075.69;;;17.60;44.48
55466;BME280;41329;41.594;23.810;2024-02-23T11:27:30;95075.50;;;17.71;42.77
55466;BME280;41329;41.594;23.810;2024-02-23T11:30:06;95067.94;;;17.95;45.48
55466;BME280;41329;41.594;23.810;2024-02-23T11:32:46;95072.13;;;18.29;43.91
55466;BME280;41329;41.594;23.810;2024-02-23T11:35:16;95067.81;;;18.48;44.64
55466;BME280;41329;41.594;23.810;2024-02-23T11:38:03;95058.94;;;18.72;41.68
55466;BME280;41329;41.594;23.810;2024-02-23T11:40:31;95046.78;;;18.59;41.02
55466;BME280;41329;41.594;23.810;2024-02-23T11:42:57;95042.47;;;18.55;41.17
55466;BME280;41329;41.594;23.810;2024-02-23T11:45:28;95067.97;;;18.41;39.79
55466;BME280;41329;41.594;23.810;2024-02-23T11:47:53;95069.03;;;18.24;39.16
55466;BME280;41329;41.594;23.810;2024-02-23T11:50:19;95069.81;;;18.24;40.29
55466;BME280;41329;41.594;23.810;2024-02-23T11:52:46;95064.44;;;18.37;40.26
55466;BME280;41329;41.594;23.810;2024-02-23T11:55:12;95066.59;;;18.26;38.82
55466;BME280;41329;41.594;23.810;2024-02-23T11:57:38;95068.09;;;17.84;39.01
55466;BME280;41329;41.594;23.810;2024-02-23T12:00:05;95064.75;;;17.92;38.65
55466;BME280;41329;41.594;23.810;2024-02-23T12:02:32;95061.59;;;18.14;40.48
55466;BME280;41329;41.594;23.810;2024-02-23T12:04:58;95056.88;;;18.34;39.36
55466;BME280;41329;41.594;23.810;2024-02-23T12:07:23;95052.84;;;18.35;36.89
55466;BME280;41329;41.594;23.810;2024-02-23T12:09:51;95024.22;;;18.01;38.44
55466;BME280;41329;41.594;23.810;2024-02-23T12:12:18;95021.19;;;18.15;38.03
55466;BME280;41329;41.594;23.810;2024-02-23T12:14:44;95051.66;;;18.36;37.14
55466;BME280;41329;41.594;23.810;2024-02-23T12:17:09;95029.53;;;18.18;38.46
55466;BME280;41329;41.594;23.810;2024-02-23T12:19:38;95040.09;;;18.30;37.38
55466;BME280;41329;41.594;23.810;2024-02-23T12:22:07;95044.91;;;18.30;37.74
55466;BME280;41329;41.594;23.810;2024-02-23T12:24:34;95030.78;;;18.14;37.05
55466;BME280;41329;41.594;23.810;2024-02-23T12:26:59;95036.44;;;18.33;38.17
55466;BME280;41329;41.594;23.810;2024-02-23T12:29:24;95052.28;;;18.20;37.61
55466;BME280;41329;41.594;23.810;2024-02-23T12:31:50;95038.97;;;18.05;37.01
55466;BME280;41329;41.594;23.810;2024-02-23T12:34:16;95040.66;;;17.99;37.17
55466;BME280;41329;41.594;23.810;2024-02-23T12:36:42;95038.72;;;17.96;37.26
55466;BME280;41329;41.594;23.810;2024-02-23T12:39:08;95048.81;;;18.13;37.30
55466;BME280;41329;41.594;23.810;2024-02-23T12:41:33;95020.34;;;17.95;35.86
55466;BME280;41329;41.594;23.810;2024-02-23T12:43:59;95037.44;;;18.00;36.87
55466;BME280;41329;41.594;23.810;2024-02-23T12:46:24;95024.22;;;18.01;36.56
55466;BME280;41329;41.594;23.810;2024-02-23T12:48:50;95034.16;;;18.05;36.29
55466;BME280;41329;41.594;23.810;2024-02-23T12:51:16;95037.06;;;17.98;37.35
55466;BME280;41329;41.594;23.810;2024-02-23T12:53:42;95036.22;;;17.78;37.61